createdAt,value
2018-03-06T00:00:55.036Z,2.50
2018-03-06T00:03:21.259Z,2.50
2018-03-06T00:05:47.548Z,2.50
2018-03-06T00:08:14.536Z,2.40
2018-03-06T00:10:41.551Z,2.40
2018-03-06T00:13:07.749Z,2.30
2018-03-06T00:15:33.969Z,2.30
2018-03-06T00:18:00.201Z,2.30
2018-03-06T00:20:27.230Z,2.30
2018-03-06T00:22:53.454Z,2.20
2018-03-06T00:25:19.684Z,2.20
2018-03-06T00:27:46.581Z,2.20
2018-03-06T00:30:12.809Z,2.10
2018-03-06T00:32:39.008Z,1.90
2018-03-06T00:35:05.519Z,1.90
2018-03-06T00:37:31.732Z,1.80
2018-03-06T00:39:57.943Z,1.80
2018-03-06T00:42:24.348Z,1.80
2018-03-06T00:44:51.284Z,1.90
2018-03-06T00:47:17.509Z,1.80
2018-03-06T00:49:43.756Z,1.80
2018-03-06T00:52:09.980Z,1.80
2018-03-06T00:54:36.170Z,1.90
2018-03-06T00:57:02.456Z,1.90
2018-03-06T00:59:28.684Z,1.90
2018-03-06T01:01:54.932Z,1.90
2018-03-06T01:04:21.134Z,1.90
2018-03-06T01:06:48.308Z,1.90
2018-03-06T01:09:14.516Z,1.90
2018-03-06T01:11:40.741Z,1.90
2018-03-06T01:14:07.843Z,1.80
2018-03-06T01:16:34.965Z,1.80
2018-03-06T01:19:01.203Z,1.80
2018-03-06T01:21:27.411Z,1.80
2018-03-06T01:23:53.704Z,1.70
2018-03-06T01:26:19.930Z,1.80
2018-03-06T01:28:46.131Z,1.80
2018-03-06T01:31:12.552Z,1.80
2018-03-06T01:33:39.544Z,1.70
2018-03-06T01:36:05.726Z,1.70
2018-03-06T01:38:32.137Z,1.70
2018-03-06T01:40:58.308Z,1.60
2018-03-06T01:43:24.579Z,1.60
2018-03-06T01:45:51.488Z,1.60
2018-03-06T01:48:17.748Z,1.60
2018-03-06T01:50:43.936Z,1.60
2018-03-06T01:53:10.184Z,1.60
2018-03-06T01:55:36.400Z,1.60
2018-03-06T01:58:03.316Z,1.50
2018-03-06T02:00:29.516Z,1.50
2018-03-06T02:02:55.839Z,1.60
2018-03-06T02:05:22.932Z,1.40
2018-03-06T02:07:49.125Z,1.40
2018-03-06T02:10:15.448Z,1.40
2018-03-06T02:12:41.661Z,1.40
2018-03-06T02:15:07.884Z,1.50
2018-03-06T02:17:34.077Z,1.40
2018-03-06T02:20:00.352Z,1.40
2018-03-06T02:22:27.316Z,1.50
2018-03-06T02:24:53.598Z,1.50
2018-03-06T02:27:19.847Z,1.50
2018-03-06T02:29:46.065Z,1.50
2018-03-06T02:32:12.313Z,1.50
2018-03-06T02:34:38.587Z,1.40
2018-03-06T02:37:05.757Z,1.20
2018-03-06T02:39:32.006Z,1.20
2018-03-06T02:41:58.410Z,1.10
2018-03-06T02:44:24.594Z,1.10
2018-03-06T02:46:51.523Z,0.90
2018-03-06T02:49:17.904Z,1.00
2018-03-06T02:51:44.088Z,1.00
2018-03-06T02:54:10.316Z,1.10
2018-03-06T02:56:36.536Z,1.10
2018-03-06T02:59:02.734Z,1.10
2018-03-06T03:01:28.932Z,1.00
2018-03-06T03:03:55.189Z,1.00
2018-03-06T03:06:21.420Z,1.10
2018-03-06T03:08:47.624Z,1.20
2018-03-06T03:11:13.911Z,1.20
2018-03-06T03:13:40.098Z,1.10
2018-03-06T03:16:06.352Z,1.10
2018-03-06T03:18:33.280Z,1.00
2018-03-06T03:20:59.776Z,1.00
2018-03-06T03:23:25.997Z,1.00
2018-03-06T03:25:52.242Z,1.10
2018-03-06T03:28:18.567Z,1.00
2018-03-06T03:30:45.559Z,1.00
2018-03-06T03:33:11.761Z,1.00
2018-03-06T03:35:38.095Z,1.00
2018-03-06T03:38:04.302Z,0.90
2018-03-06T03:40:30.494Z,0.90
2018-03-06T03:42:56.907Z,0.80
2018-03-06T03:45:23.268Z,0.70
2018-03-06T03:47:50.279Z,0.80
2018-03-06T03:50:16.495Z,0.80
2018-03-06T03:52:43.527Z,0.70
2018-03-06T03:55:09.739Z,0.70
2018-03-06T03:57:35.968Z,0.70
2018-03-06T04:00:02.225Z,0.70
2018-03-06T04:02:28.443Z,0.70
2018-03-06T04:04:54.652Z,0.80
2018-03-06T04:07:21.675Z,0.80
2018-03-06T04:09:47.867Z,0.80
2018-03-06T04:12:14.083Z,0.80
2018-03-06T04:14:40.288Z,0.70
2018-03-06T04:17:06.499Z,0.70
2018-03-06T04:19:33.555Z,0.70
2018-03-06T04:21:59.761Z,0.60
2018-03-06T04:24:26.366Z,0.70
2018-03-06T04:26:52.602Z,0.70
2018-03-06T04:29:18.820Z,0.80
2018-03-06T04:31:45.240Z,0.80
2018-03-06T04:34:11.448Z,0.80
2018-03-06T04:36:37.662Z,0.80
2018-03-06T04:39:04.170Z,0.80
2018-03-06T04:41:30.361Z,0.80
2018-03-06T04:43:56.623Z,0.80
2018-03-06T04:46:22.980Z,0.80
2018-03-06T04:48:49.198Z,0.70
2018-03-06T04:51:15.597Z,0.70
2018-03-06T04:53:41.951Z,0.70
2018-03-06T04:56:08.188Z,0.70
2018-03-06T04:58:35.152Z,0.70
2018-03-06T05:01:02.140Z,0.60
2018-03-06T05:03:28.983Z,0.60
2018-03-06T05:05:55.810Z,0.60
2018-03-06T05:08:22.746Z,0.60
2018-03-06T05:10:48.966Z,0.70
2018-03-06T05:13:15.302Z,0.70
2018-03-06T05:15:42.504Z,0.60
2018-03-06T05:18:08.744Z,0.60
2018-03-06T05:20:34.976Z,0.70
2018-03-06T05:23:01.268Z,0.60
2018-03-06T05:25:27.586Z,0.60
2018-03-06T05:27:53.821Z,0.60
2018-03-06T05:30:20.041Z,0.60
2018-03-06T05:32:47.064Z,0.50
2018-03-06T05:35:13.273Z,0.50
2018-03-06T05:37:40.601Z,0.40
2018-03-06T05:40:06.780Z,0.40
2018-03-06T05:42:33.740Z,0.50
2018-03-06T05:45:00.774Z,0.50
2018-03-06T05:47:27.126Z,0.40
2018-03-06T05:49:53.397Z,0.40
2018-03-06T05:52:19.660Z,0.50
2018-03-06T05:54:46.176Z,0.50
2018-03-06T05:57:12.409Z,0.50
2018-03-06T05:59:39.353Z,0.40
2018-03-06T06:02:05.576Z,0.40
2018-03-06T06:04:31.968Z,0.50
2018-03-06T06:06:58.221Z,0.40
2018-03-06T06:09:24.447Z,0.40
2018-03-06T06:11:51.652Z,0.40
2018-03-06T06:14:17.841Z,0.50
2018-03-06T06:16:44.781Z,0.50
2018-03-06T06:19:11.110Z,0.50
2018-03-06T06:21:37.341Z,0.60
2018-03-06T06:24:03.576Z,0.60
2018-03-06T06:26:29.772Z,0.60
2018-03-06T06:28:58.768Z,0.60
2018-03-06T06:31:25.857Z,0.60
2018-03-06T06:33:52.051Z,0.50
2018-03-06T06:36:18.248Z,0.60
2018-03-06T06:38:44.552Z,0.70
2018-03-06T06:41:11.748Z,0.70
2018-03-06T06:43:37.942Z,0.70
2018-03-06T06:46:04.204Z,0.80
2018-03-06T06:48:30.416Z,0.80
2018-03-06T06:50:56.575Z,0.80
2018-03-06T06:53:22.991Z,0.90
2018-03-06T06:55:49.164Z,1.00
2018-03-06T06:58:15.369Z,1.30
2018-03-06T07:00:41.833Z,1.60
2018-03-06T07:03:08.061Z,1.90
2018-03-06T07:05:34.336Z,2.00
2018-03-06T07:08:00.514Z,2.40
2018-03-06T07:10:26.879Z,2.30
2018-03-06T07:12:53.056Z,2.60
2018-03-06T07:15:19.241Z,2.80
2018-03-06T07:17:45.476Z,2.60
2018-03-06T07:20:11.682Z,2.40
2018-03-06T07:22:37.918Z,2.30
2018-03-06T07:25:04.208Z,2.20
2018-03-06T07:27:30.448Z,2.20
2018-03-06T07:29:56.696Z,2.20
2018-03-06T07:32:23.008Z,2.20
2018-03-06T07:34:49.263Z,2.30
2018-03-06T07:37:15.461Z,2.30
2018-03-06T07:39:41.896Z,2.30
2018-03-06T07:42:08.104Z,2.30
2018-03-06T07:44:34.276Z,2.20
2018-03-06T07:47:00.693Z,2.20
2018-03-06T07:49:26.960Z,2.20
2018-03-06T07:51:53.179Z,2.30
2018-03-06T07:54:19.488Z,2.30
2018-03-06T07:56:45.754Z,2.30
2018-03-06T07:59:11.964Z,2.30
2018-03-06T08:01:38.268Z,2.40
2018-03-06T08:04:04.479Z,2.50
2018-03-06T08:06:30.758Z,2.40
2018-03-06T08:08:57.602Z,2.50
2018-03-06T08:11:23.783Z,2.40
2018-03-06T08:13:50.732Z,2.60
2018-03-06T08:16:17.704Z,2.60
2018-03-06T08:18:44.826Z,2.70
2018-03-06T08:21:11.020Z,2.70
2018-03-06T08:23:37.240Z,2.80
2018-03-06T08:26:03.637Z,2.90
2018-03-06T08:28:29.903Z,2.90
2018-03-06T08:30:56.037Z,3.00
2018-03-06T08:33:22.256Z,3.00
2018-03-06T08:35:48.464Z,3.10
2018-03-06T08:38:14.708Z,3.20
2018-03-06T08:40:41.621Z,3.20
2018-03-06T08:43:07.983Z,3.30
2018-03-06T08:45:34.983Z,3.40
2018-03-06T08:48:01.224Z,3.40
2018-03-06T08:50:27.661Z,3.40
2018-03-06T08:52:53.850Z,3.50
2018-03-06T08:55:20.044Z,3.50
2018-03-06T08:57:46.418Z,3.70
2018-03-06T09:00:12.575Z,3.80
2018-03-06T09:02:38.769Z,3.80
2018-03-06T09:05:05.088Z,3.90
2018-03-06T09:07:31.317Z,4.10
2018-03-06T09:09:57.505Z,4.10
2018-03-06T09:12:23.806Z,4.20
2018-03-06T09:14:50.851Z,4.30
2018-03-06T09:17:17.117Z,4.30
2018-03-06T09:19:43.288Z,4.50
2018-03-06T09:22:10.379Z,4.60
2018-03-06T09:24:36.658Z,4.70
2018-03-06T09:27:02.894Z,4.80
2018-03-06T09:29:29.812Z,5.00
2018-03-06T09:31:56.030Z,5.00
2018-03-06T09:34:22.253Z,5.10
2018-03-06T09:36:48.592Z,5.10
2018-03-06T09:39:14.799Z,5.20
2018-03-06T09:41:41.018Z,5.30
2018-03-06T09:44:07.203Z,5.40
2018-03-06T09:46:33.426Z,5.50
2018-03-06T09:48:59.607Z,5.60
2018-03-06T09:51:26.539Z,5.70
2018-03-06T09:53:53.601Z,5.80
2018-03-06T09:56:20.557Z,5.90
2018-03-06T09:58:46.734Z,5.90
2018-03-06T10:01:13.033Z,6.00
2018-03-06T10:03:39.191Z,6.10
2018-03-06T10:06:05.371Z,6.10
2018-03-06T10:08:31.646Z,6.10
2018-03-06T10:10:57.829Z,6.30
2018-03-06T10:13:24.017Z,6.40
2018-03-06T10:15:50.231Z,6.40
2018-03-06T10:18:16.405Z,6.50
2018-03-06T10:20:42.583Z,6.60
2018-03-06T10:23:08.860Z,6.70
2018-03-06T10:25:35.207Z,6.80
2018-03-06T10:28:01.423Z,6.90
2018-03-06T10:30:27.620Z,6.70
2018-03-06T10:32:54.894Z,7.10
2018-03-06T10:35:21.820Z,7.20
2018-03-06T10:37:48.016Z,7.20
2018-03-06T10:40:14.297Z,7.30
2018-03-06T10:42:40.491Z,7.30
2018-03-06T10:45:06.734Z,7.50
2018-03-06T10:47:32.949Z,7.60
2018-03-06T10:49:59.153Z,7.60
2018-03-06T10:52:25.341Z,7.80
2018-03-06T10:54:52.381Z,7.90
2018-03-06T10:57:18.577Z,7.90
2018-03-06T10:59:44.827Z,8.00
2018-03-06T11:02:13.971Z,8.00
2018-03-06T11:04:40.166Z,8.20
2018-03-06T11:07:06.466Z,8.20
2018-03-06T11:09:32.629Z,8.30
2018-03-06T11:11:58.862Z,8.40
2018-03-06T11:14:25.102Z,8.30
2018-03-06T11:16:51.288Z,8.40
2018-03-06T11:19:17.480Z,8.60
2018-03-06T11:21:44.638Z,9.00
2018-03-06T11:24:11.619Z,9.10
2018-03-06T11:26:37.839Z,9.10
2018-03-06T11:29:04.116Z,9.10
2018-03-06T11:31:30.302Z,9.10
2018-03-06T11:33:56.482Z,9.10
2018-03-06T11:36:22.764Z,9.10
2018-03-06T11:38:49.032Z,8.70
2018-03-06T11:41:16.001Z,9.20
2018-03-06T11:43:42.922Z,9.30
2018-03-06T11:46:09.967Z,9.30
2018-03-06T11:48:36.168Z,9.50
2018-03-06T11:51:03.083Z,9.20
2018-03-06T11:53:29.268Z,9.20
2018-03-06T11:55:55.532Z,9.40
2018-03-06T11:58:21.714Z,9.60
2018-03-06T12:00:47.883Z,9.70
2018-03-06T12:03:15.014Z,9.60
2018-03-06T12:05:41.229Z,9.50
2018-03-06T12:08:07.447Z,9.90
2018-03-06T12:10:33.771Z,10.10
2018-03-06T12:13:00.722Z,9.60
2018-03-06T12:15:27.633Z,10.00
2018-03-06T12:17:53.801Z,9.90
2018-03-06T12:20:20.034Z,10.40
2018-03-06T12:22:46.224Z,10.60
2018-03-06T12:25:12.461Z,10.70
2018-03-06T12:27:39.645Z,10.90
2018-03-06T12:30:05.918Z,10.90
2018-03-06T12:32:32.100Z,11.00
2018-03-06T12:34:58.672Z,11.10
2018-03-06T12:37:24.883Z,11.20
2018-03-06T12:39:51.881Z,11.30
2018-03-06T12:42:18.680Z,11.30
2018-03-06T12:44:44.964Z,11.10
2018-03-06T12:47:11.155Z,11.30
2018-03-06T12:49:37.343Z,11.40
2018-03-06T12:52:03.652Z,11.60
2018-03-06T12:54:29.824Z,11.80
2018-03-06T12:56:56.020Z,11.90
2018-03-06T12:59:22.300Z,11.90
2018-03-06T13:01:48.544Z,11.90
2018-03-06T13:04:14.727Z,11.90
2018-03-06T13:06:41.140Z,11.90
2018-03-06T13:09:07.350Z,12.10
2018-03-06T13:11:34.371Z,12.20
2018-03-06T13:14:00.709Z,12.10
2018-03-06T13:16:26.909Z,12.20
2018-03-06T13:18:53.205Z,12.30
2018-03-06T13:21:19.590Z,12.20
2018-03-06T13:23:45.836Z,12.20
2018-03-06T13:26:12.045Z,12.00
2018-03-06T13:28:39.032Z,12.10
2018-03-06T13:31:06.098Z,12.20
2018-03-06T13:33:32.300Z,12.10
2018-03-06T13:35:58.484Z,11.90
2018-03-06T13:38:24.796Z,12.10
2018-03-06T13:40:51.736Z,12.10
2018-03-06T13:43:17.928Z,12.10
2018-03-06T13:45:44.250Z,11.90
2018-03-06T13:48:10.508Z,12.00
2018-03-06T13:50:36.678Z,12.00
2018-03-06T13:53:02.969Z,11.60
2018-03-06T13:55:30.077Z,11.40
2018-03-06T13:57:56.289Z,11.30
2018-03-06T14:00:22.640Z,11.70
2018-03-06T14:02:48.901Z,12.00
2018-03-06T14:05:15.178Z,12.30
2018-03-06T14:07:41.368Z,12.50
2018-03-06T14:10:07.737Z,12.50
2018-03-06T14:12:33.962Z,12.50
2018-03-06T14:15:01.054Z,12.30
2018-03-06T14:17:27.569Z,12.20
2018-03-06T14:19:53.850Z,12.20
2018-03-06T14:22:20.020Z,11.90
2018-03-06T14:24:48.332Z,12.10
2018-03-06T14:27:14.801Z,12.20
2018-03-06T14:29:41.000Z,12.20
2018-03-06T14:32:07.932Z,12.20
2018-03-06T14:34:34.116Z,12.20
2018-03-06T14:37:00.389Z,12.20
2018-03-06T14:39:26.592Z,12.20
2018-03-06T14:41:52.800Z,12.20
2018-03-06T14:44:19.100Z,12.10
2018-03-06T14:46:45.330Z,12.10
2018-03-06T14:49:11.517Z,12.10
2018-03-06T14:51:37.797Z,12.20
2018-03-06T14:54:03.987Z,12.20
2018-03-06T14:56:30.182Z,12.10
2018-03-06T14:58:57.544Z,12.10
2018-03-06T15:01:23.740Z,12.10
2018-03-06T15:03:49.978Z,12.00
2018-03-06T15:06:16.259Z,12.10
2018-03-06T15:08:43.630Z,12.20
2018-03-06T15:11:09.855Z,12.20
2018-03-06T15:13:36.813Z,12.30
2018-03-06T15:16:03.090Z,12.20
2018-03-06T15:18:29.432Z,12.20
2018-03-06T15:20:55.620Z,12.30
2018-03-06T15:23:24.773Z,12.40
2018-03-06T15:25:54.726Z,12.40
2018-03-06T15:28:20.996Z,12.40
2018-03-06T15:30:47.518Z,12.50
2018-03-06T15:33:13.714Z,12.50
2018-03-06T15:35:40.673Z,12.40
2018-03-06T15:38:07.620Z,12.40
2018-03-06T15:40:34.733Z,12.30
2018-03-06T15:43:00.951Z,12.20
2018-03-06T15:45:27.207Z,12.20
2018-03-06T15:47:53.392Z,12.10
2018-03-06T15:50:19.662Z,11.70
2018-03-06T15:52:45.918Z,11.90
2018-03-06T15:55:12.148Z,12.00
2018-03-06T15:57:39.114Z,12.00
2018-03-06T16:00:05.320Z,12.00
2018-03-06T16:02:31.543Z,12.10
2018-03-06T16:04:57.752Z,12.00
2018-03-06T16:07:23.993Z,11.90
2018-03-06T16:09:50.182Z,11.80
2018-03-06T16:12:16.396Z,11.70
2018-03-06T16:14:42.581Z,11.70
2018-03-06T16:17:09.560Z,11.60
2018-03-06T16:19:35.871Z,11.50
2018-03-06T16:22:02.079Z,11.40
2018-03-06T16:24:28.272Z,11.30
2018-03-06T16:26:54.628Z,11.20
2018-03-06T16:29:20.843Z,11.10
2018-03-06T16:31:47.769Z,11.00
2018-03-06T16:34:14.131Z,11.00
2018-03-06T16:36:40.358Z,10.90
2018-03-06T16:39:06.569Z,10.80
2018-03-06T16:41:32.811Z,10.80
2018-03-06T16:43:59.056Z,10.70
2018-03-06T16:46:25.235Z,10.70
2018-03-06T16:48:52.165Z,10.60
2018-03-06T16:51:19.560Z,10.60
2018-03-06T16:53:45.782Z,10.50
2018-03-06T16:56:11.943Z,10.40
2018-03-06T16:58:38.165Z,10.30
2018-03-06T17:01:07.973Z,10.30
2018-03-06T17:03:34.189Z,10.20
2018-03-06T17:06:00.380Z,10.10
2018-03-06T17:08:26.588Z,10.10
2018-03-06T17:10:54.060Z,10.00
2018-03-06T17:13:21.059Z,9.90
2018-03-06T17:15:47.270Z,9.90
2018-03-06T17:18:13.546Z,9.90
2018-03-06T17:20:39.765Z,9.80
2018-03-06T17:23:05.940Z,9.70
2018-03-06T17:25:32.931Z,9.60
2018-03-06T17:27:59.193Z,9.60
2018-03-06T17:30:25.471Z,9.60
2018-03-06T17:32:51.692Z,9.50
2018-03-06T17:35:17.988Z,9.40
2018-03-06T17:37:44.224Z,9.30
2018-03-06T17:40:10.412Z,9.20
2018-03-06T17:42:36.723Z,9.10
2018-03-06T17:45:02.950Z,8.90
2018-03-06T17:47:29.175Z,8.80
2018-03-06T17:49:56.361Z,8.60
2018-03-06T17:52:22.595Z,8.60
2018-03-06T17:54:48.766Z,8.50
2018-03-06T17:57:15.233Z,8.40
2018-03-06T17:59:41.457Z,8.30
2018-03-06T18:02:07.753Z,8.30
2018-03-06T18:04:33.893Z,8.30
2018-03-06T18:07:00.146Z,8.30
2018-03-06T18:09:26.400Z,8.20
2018-03-06T18:11:52.611Z,8.20
2018-03-06T18:14:19.729Z,8.20
2018-03-06T18:16:45.907Z,8.10
2018-03-06T18:19:12.137Z,8.10
2018-03-06T18:21:39.187Z,8.00
2018-03-06T18:24:05.429Z,7.90
2018-03-06T18:26:32.118Z,7.90
2018-03-06T18:28:59.069Z,7.80
2018-03-06T18:31:25.362Z,7.70
2018-03-06T18:33:51.592Z,7.70
2018-03-06T18:36:17.788Z,7.60
2018-03-06T18:38:44.824Z,7.50
2018-03-06T18:41:11.009Z,7.50
2018-03-06T18:43:37.224Z,7.50
2018-03-06T18:46:03.508Z,7.40
2018-03-06T18:48:29.717Z,7.30
2018-03-06T18:51:08.309Z,7.20
2018-03-06T18:53:34.536Z,7.20
2018-03-06T18:56:00.781Z,7.20
2018-03-06T18:58:26.976Z,7.20
2018-03-06T19:01:05.330Z,7.10
2018-03-06T19:03:44.143Z,7.00
2018-03-06T19:06:22.679Z,7.10
2018-03-06T19:08:49.099Z,7.00
2018-03-06T19:11:15.293Z,7.10
2018-03-06T19:13:41.500Z,7.00
2018-03-06T19:16:08.806Z,7.00
2018-03-06T19:18:35.216Z,7.00
2018-03-06T19:21:01.438Z,7.00
2018-03-06T19:23:27.667Z,7.00
2018-03-06T19:25:54.869Z,6.90
2018-03-06T19:28:21.093Z,6.90
2018-03-06T19:30:47.305Z,6.90
2018-03-06T19:33:13.494Z,6.80
2018-03-06T19:35:39.710Z,6.80
2018-03-06T19:38:06.710Z,6.70
2018-03-06T19:40:32.923Z,6.70
2018-03-06T19:42:59.387Z,6.70
2018-03-06T19:45:25.598Z,6.70
2018-03-06T19:47:52.510Z,6.70
2018-03-06T19:50:18.893Z,6.70
2018-03-06T19:52:45.946Z,6.60
2018-03-06T19:55:12.137Z,6.60
2018-03-06T19:57:38.346Z,6.60
2018-03-06T20:00:05.236Z,6.70
2018-03-06T20:02:31.420Z,6.70
2018-03-06T20:04:58.425Z,6.60
2018-03-06T20:07:24.694Z,6.60
2018-03-06T20:09:51.080Z,6.60
2018-03-06T20:12:17.269Z,6.60
2018-03-06T20:14:49.878Z,6.60
2018-03-06T20:17:16.066Z,6.50
2018-03-06T20:19:42.272Z,6.50
2018-03-06T20:22:08.891Z,6.50
2018-03-06T20:24:41.096Z,6.40
2018-03-06T20:27:07.417Z,6.40
2018-03-06T20:29:34.900Z,6.30
2018-03-06T20:32:07.217Z,6.40
2018-03-06T20:34:35.240Z,6.30
2018-03-06T20:37:01.522Z,6.30
2018-03-06T20:39:33.878Z,6.20
2018-03-06T20:42:00.225Z,6.30
2018-03-06T20:44:27.337Z,6.30
2018-03-06T20:46:59.659Z,6.20
2018-03-06T20:49:25.857Z,6.20
2018-03-06T20:51:52.898Z,6.40
2018-03-06T20:54:25.104Z,6.40
2018-03-06T20:56:51.441Z,6.40
2018-03-06T20:59:18.364Z,6.50
2018-03-06T21:01:44.570Z,6.40
2018-03-06T21:04:10.760Z,6.50
2018-03-06T21:06:37.100Z,6.50
2018-03-06T21:09:03.322Z,6.50
2018-03-06T21:11:29.524Z,6.60
2018-03-06T21:13:55.719Z,6.60
2018-03-06T21:16:21.933Z,6.60
2018-03-06T21:18:48.112Z,6.60
2018-03-06T21:21:14.354Z,6.60
2018-03-06T21:23:40.528Z,6.70
2018-03-06T21:26:06.754Z,6.70
2018-03-06T21:28:33.017Z,6.70
2018-03-06T21:30:59.257Z,6.70
2018-03-06T21:33:25.429Z,6.70
2018-03-06T21:35:51.841Z,6.80
2018-03-06T21:38:18.066Z,6.80
2018-03-06T21:40:45.007Z,6.90
2018-03-06T21:43:11.980Z,6.90
2018-03-06T21:45:38.951Z,6.90
2018-03-06T21:48:05.162Z,6.90
2018-03-06T21:50:31.396Z,7.00
2018-03-06T21:52:57.782Z,7.00
2018-03-06T21:55:23.978Z,7.00
2018-03-06T21:57:50.269Z,7.10
2018-03-06T22:00:16.538Z,7.10
2018-03-06T22:02:42.749Z,7.20
2018-03-06T22:05:08.970Z,7.20
2018-03-06T22:07:35.214Z,7.20
2018-03-06T22:10:01.568Z,7.20
2018-03-06T22:12:27.761Z,7.20
2018-03-06T22:14:53.959Z,7.20
2018-03-06T22:17:20.221Z,7.20
2018-03-06T22:19:46.814Z,7.20
2018-03-06T22:22:13.830Z,7.20
2018-03-06T22:24:40.127Z,7.20
2018-03-06T22:27:07.077Z,7.10
2018-03-06T22:29:34.042Z,7.10
2018-03-06T22:32:01.007Z,7.10
2018-03-06T22:34:27.384Z,7.10
2018-03-06T22:36:53.622Z,7.10
2018-03-06T22:39:19.821Z,7.00
2018-03-06T22:41:46.821Z,7.00
2018-03-06T22:44:13.064Z,7.00
2018-03-06T22:46:39.279Z,7.10
2018-03-06T22:49:05.543Z,7.10
2018-03-06T22:51:31.826Z,7.10
2018-03-06T22:53:58.017Z,7.10
2018-03-06T22:56:24.349Z,7.10
2018-03-06T22:58:50.550Z,7.10
2018-03-06T23:01:16.776Z,7.10
2018-03-06T23:03:43.024Z,7.10
2018-03-06T23:06:09.276Z,7.20
2018-03-06T23:08:35.541Z,7.20
2018-03-06T23:11:02.789Z,7.20
2018-03-06T23:13:29.211Z,7.20
2018-03-06T23:15:55.437Z,7.20
2018-03-06T23:18:21.683Z,7.20
2018-03-06T23:20:48.125Z,7.30
2018-03-06T23:23:14.366Z,7.30
2018-03-06T23:25:40.638Z,7.30
2018-03-06T23:28:07.076Z,7.30
2018-03-06T23:30:33.271Z,7.40
2018-03-06T23:32:59.507Z,7.30
2018-03-06T23:35:25.838Z,7.30
2018-03-06T23:37:52.132Z,7.30
2018-03-06T23:40:18.393Z,7.40
2018-03-06T23:42:44.620Z,7.40
2018-03-06T23:45:10.973Z,7.40
2018-03-06T23:47:37.189Z,7.40
2018-03-06T23:50:03.382Z,7.40
2018-03-06T23:52:31.172Z,7.30
2018-03-06T23:54:57.393Z,7.30
2018-03-06T23:57:23.614Z,7.30
2018-03-06T23:59:49.884Z,7.30
